Time;durP1;ratioP1;P1;durP2;ratioP2;P2;SDS_P1;SDS_P2;PMS_P1;PMS_P2;Temp;Humidity;BMP_temperature;BMP_pressure;BME280_temperature;BME280_humidity;BME280_pressure;Samples;Min_cycle;Max_cycle;Signal;HPM_P1;HPM_P2
2021/05/04 06:01:33;;;;;;;8.68;4.70;;;;;;;9.48;52.42;97379.31;5118614;24;20042;-46
2021/05/04 06:03:58;;;;;;;8.60;4.95;;;;;;;9.45;52.03;97369.09;4844811;29;20525;-50
2021/05/04 06:06:24;;;;;;;9.38;4.50;;;;;;;9.55;51.78;97365.78;4844185;29;20213;-49
2021/05/04 06:08:50;;;;;;;10.07;4.80;;;;;;;9.72;51.51;97365.28;4844399;29;20570;-51
2021/05/04 06:11:15;;;;;;;9.20;4.63;;;;;;;9.78;51.00;97367.44;4844466;29;20038;-47
2021/05/04 06:13:43;;;;;;;8.80;3.90;;;;;;;9.83;50.65;97356.59;4844568;29;20096;-50
2021/05/04 06:16:09;;;;;;;8.05;4.30;;;;;;;9.85;50.20;97352.06;4843505;29;20469;-50
2021/05/04 06:18:34;;;;;;;8.68;4.20;;;;;;;10.00;50.04;97356.06;4844506;29;20474;-46
2021/05/04 06:20:59;;;;;;;8.98;4.35;;;;;;;9.95;50.41;97363.47;4843525;29;20056;-48
2021/05/04 06:23:25;;;;;;;8.75;4.70;;;;;;;10.02;49.65;97356.81;4844434;29;20459;-51
2021/05/04 06:25:50;;;;;;;10.18;4.47;;;;;;;10.07;49.83;97346.78;4844381;29;20033;-51
2021/05/04 06:28:16;;;;;;;10.48;4.50;;;;;;;10.21;49.30;97354.34;4844337;29;20041;-54
2021/05/04 06:30:41;;;;;;;7.90;3.83;;;;;;;10.17;50.38;97349.50;4843773;29;20489;-48
2021/05/04 06:33:08;;;;;;;7.47;4.18;;;;;;;10.18;49.41;97359.84;4844270;29;20030;-50
2021/05/04 06:35:36;;;;;;;8.65;4.15;;;;;;;10.18;49.49;97353.75;4844358;29;20036;-53
2021/05/04 06:38:04;;;;;;;9.40;4.13;;;;;;;10.19;49.27;97340.56;4844119;29;20030;-52
2021/05/04 06:40:30;;;;;;;7.57;4.25;;;;;;;10.30;48.96;97341.50;4843899;29;20018;-46
2021/05/04 06:42:56;;;;;;;8.50;4.07;;;;;;;10.27;49.29;97350.44;4844148;29;20038;-51
2021/05/04 06:45:21;;;;;;;7.85;4.32;;;;;;;10.30;49.28;97344.13;4843973;29;20033;-48
2021/05/04 06:47:47;;;;;;;10.10;3.97;;;;;;;10.22;48.98;97353.41;4844186;29;20142;-49
2021/05/04 06:50:12;;;;;;;7.78;4.45;;;;;;;10.22;49.21;97342.09;4843758;29;20037;-51
2021/05/04 06:52:37;;;;;;;7.53;4.07;;;;;;;10.28;49.50;97320.66;4844003;29;20391;-50
2021/05/04 06:55:03;;;;;;;7.45;4.03;;;;;;;10.41;48.10;97344.91;4843993;29;20036;-48
2021/05/04 06:57:29;;;;;;;7.75;4.22;;;;;;;10.27;47.70;97329.47;4843837;29;20152;-51
2021/05/04 06:59:54;;;;;;;8.13;3.78;;;;;;;10.50;47.29;97321.53;4842135;29;20074;-46
2021/05/04 07:02:20;;;;;;;7.35;3.70;;;;;;;10.58;47.91;97329.59;4843908;29;20026;-49
2021/05/04 07:04:45;;;;;;;8.05;4.28;;;;;;;10.49;48.21;97331.16;4843770;29;20478;-47
2021/05/04 07:07:11;;;;;;;6.97;3.80;;;;;;;10.54;47.75;97321.16;4843660;29;20030;-49
2021/05/04 07:09:36;;;;;;;8.27;4.13;;;;;;;10.54;47.37;97312.47;4843721;29;20025;-48
2021/05/04 07:12:03;;;;;;;9.50;4.18;;;;;;;10.60;47.39;97312.78;4843286;29;20041;-47
2021/05/04 07:14:28;;;;;;;7.80;3.78;;;;;;;10.65;47.41;97315.00;4843495;29;20032;-48
2021/05/04 07:16:53;;;;;;;7.82;3.80;;;;;;;10.68;47.79;97310.34;4843785;29;20030;-50
2021/05/04 07:19:19;;;;;;;7.47;3.78;;;;;;;10.73;47.50;97317.00;4843773;29;20455;-44
2021/05/04 07:21:44;;;;;;;8.13;4.15;;;;;;;10.65;47.45;97310.59;4843409;29;20443;-46
2021/05/04 07:24:10;;;;;;;7.25;3.88;;;;;;;10.73;47.13;97306.50;4843614;29;20398;-48
2021/05/04 07:26:38;;;;;;;7.70;3.72;;;;;;;10.78;47.03;97304.34;4843522;29;20233;-47
2021/05/04 07:29:03;;;;;;;8.90;4.18;;;;;;;10.85;46.32;97310.75;4843297;29;20309;-51
2021/05/04 07:31:30;;;;;;;7.88;4.43;;;;;;;10.79;46.66;97308.63;4842803;29;20028;-48
2021/05/04 07:33:55;;;;;;;8.98;4.00;;;;;;;10.71;47.83;97303.19;4842960;29;20049;-53
2021/05/04 07:36:21;;;;;;;7.50;4.07;;;;;;;10.62;46.79;97294.28;4843171;29;20082;-51
2021/05/04 07:38:46;;;;;;;8.57;4.15;;;;;;;10.87;46.44;97285.19;4843259;29;20463;-48
2021/05/04 07:41:12;;;;;;;7.80;4.05;;;;;;;10.92;46.52;97299.59;4843165;29;20030;-52
2021/05/04 07:43:37;;;;;;;7.85;4.45;;;;;;;10.97;47.12;97287.88;4843241;29;20034;-49
2021/05/04 07:46:03;;;;;;;7.15;3.90;;;;;;;11.04;45.58;97294.25;4843265;29;20417;-52
2021/05/04 07:48:28;;;;;;;7.95;3.92;;;;;;;11.19;46.89;97281.66;4843003;29;20402;-53
2021/05/04 07:50:53;;;;;;;7.55;3.90;;;;;;;11.25;46.19;97287.22;4842709;29;20129;-47
2021/05/04 07:53:19;;;;;;;8.18;4.00;;;;;;;11.29;46.12;97290.41;4843056;29;20026;-48
2021/05/04 07:55:44;;;;;;;8.30;3.85;;;;;;;11.22;45.39;97273.47;4843203;29;20032;-49
2021/05/04 07:58:10;;;;;;;7.60;3.67;;;;;;;11.45;45.61;97276.75;4843185;29;20049;-48
2021/05/04 08:00:35;;;;;;;8.25;3.67;;;;;;;11.36;45.74;97283.66;4842567;29;20037;-49
2021/05/04 08:03:01;;;;;;;8.65;4.20;;;;;;;11.41;45.66;97289.31;4843004;29;20034;-48
2021/05/04 08:05:26;;;;;;;8.32;3.97;;;;;;;11.61;45.67;97279.72;4843016;29;20037;-46
2021/05/04 08:07:52;;;;;;;8.10;4.40;;;;;;;11.62;45.03;97269.06;4842786;29;20030;-46
2021/05/04 08:10:17;;;;;;;7.65;4.00;;;;;;;11.87;44.32;97259.91;4842408;29;20036;-46
2021/05/04 08:12:42;;;;;;;8.05;3.72;;;;;;;11.82;44.62;97256.81;4842311;29;20026;-44
2021/05/04 08:15:13;;;;;;;8.13;3.97;;;;;;;11.75;45.85;97271.47;4842489;29;20025;-45
2021/05/04 08:17:40;;;;;;;7.30;3.88;;;;;;;11.88;44.46;97263.34;4842566;29;20049;-45
2021/05/04 08:20:06;;;;;;;7.80;3.80;;;;;;;11.81;45.68;97251.69;4842110;29;20022;-44
2021/05/04 08:22:31;;;;;;;7.28;3.90;;;;;;;11.72;45.35;97266.47;4842377;29;20029;-46
2021/05/04 08:24:59;;;;;;;10.85;4.30;;;;;;;11.80;45.58;97260.53;4842246;29;20030;-46
2021/05/04 08:27:25;;;;;;;7.28;3.78;;;;;;;11.84;45.37;97240.97;4842261;29;20089;-47
2021/05/04 08:29:50;;;;;;;7.72;4.07;;;;;;;12.18;44.50;97258.94;4841865;29;20462;-44
2021/05/04 08:32:16;;;;;;;8.98;4.25;;;;;;;11.95;45.15;97240.81;4842163;29;20042;-46
2021/05/04 08:34:41;;;;;;;8.00;4.03;;;;;;;11.95;44.82;97246.09;4841645;29;20030;-50
2021/05/04 08:37:07;;;;;;;7.10;3.92;;;;;;;12.09;44.24;97244.84;4842170;29;20310;-46
2021/05/04 08:39:32;;;;;;;8.10;4.32;;;;;;;12.15;44.50;97238.19;4842000;29;20033;-46
2021/05/04 08:41:57;;;;;;;8.30;4.25;;;;;;;12.26;44.48;97230.19;4841741;29;20037;-48
2021/05/04 08:44:23;;;;;;;8.55;4.10;;;;;;;12.36;43.91;97228.38;4842002;29;20398;-45
2021/05/04 08:46:49;;;;;;;7.45;3.92;;;;;;;12.33;44.66;97226.03;4825773;29;20033;-47
2021/05/04 08:49:15;;;;;;;7.47;4.45;;;;;;;12.44;44.13;97220.59;4841816;29;20082;-45
2021/05/04 08:51:45;;;;;;;7.68;4.03;;;;;;;12.66;43.86;97215.97;4841526;29;20122;-47
2021/05/04 08:54:10;;;;;;;9.20;3.90;;;;;;;12.72;42.90;97218.06;4841843;29;20073;-49
2021/05/04 08:56:35;;;;;;;7.97;4.10;;;;;;;12.80;43.00;97212.91;4841780;29;20029;-46
2021/05/04 08:59:05;;;;;;;6.95;3.65;;;;;;;12.90;42.76;97213.69;4841526;29;20090;-47
2021/05/04 09:01:31;;;;;;;8.10;3.90;;;;;;;13.16;43.43;97213.06;4841243;29;20490;-49
2021/05/04 09:04:01;;;;;;;10.02;4.13;;;;;;;13.24;43.37;97208.75;4841658;29;20047;-47
2021/05/04 09:06:31;;;;;;;7.32;3.88;;;;;;;13.26;43.28;97206.81;4841674;29;20041;-51
2021/05/04 09:09:35;;;;;;;8.57;3.85;;;;;;;13.23;42.63;97200.97;4841559;29;20078;-47
2021/05/04 09:12:03;;;;;;;8.07;4.05;;;;;;;13.33;42.32;97199.16;4841237;29;20041;-47
2021/05/04 09:14:48;;;;;;;7.00;3.50;;;;;;;13.41;44.20;97190.50;4841682;29;20029;-46
2021/05/04 09:17:18;;;;;;;6.55;3.90;;;;;;;13.62;43.02;97182.34;4841533;29;20093;-51
2021/05/04 09:20:30;;;;;;;7.63;3.80;;;;;;;13.54;42.40;97181.28;4841167;29;20034;-49
2021/05/04 09:22:36;;;;;;;8.13;3.60;;;;;;;13.78;43.25;97174.59;4843047;29;20514;-48
2021/05/04 09:25:02;;;;;;;7.22;3.25;;;;;;;14.04;42.74;97176.47;4841048;29;20421;-52
2021/05/04 09:27:27;;;;;;;6.82;3.55;;;;;;;13.98;43.62;97177.91;4841378;29;20113;-54
2021/05/04 09:29:55;;;;;;;8.18;4.00;;;;;;;14.19;41.90;97167.88;4840990;29;20086;-49
2021/05/04 09:32:21;;;;;;;6.90;3.42;;;;;;;14.36;41.38;97155.63;4840034;29;20033;-51
2021/05/04 09:35:00;;;;;;;7.20;3.30;;;;;;;14.49;41.74;97161.34;4841263;29;20057;-48
2021/05/04 09:37:26;;;;;;;6.50;3.45;;;;;;;14.74;41.41;97143.03;4841248;29;20026;-45
2021/05/04 09:39:52;;;;;;;6.47;3.15;;;;;;;14.87;41.08;97148.72;4840973;29;20492;-46
2021/05/04 09:42:18;;;;;;;5.70;2.85;;;;;;;14.83;40.31;97151.81;4841649;29;20108;-46
2021/05/04 09:44:47;;;;;;;5.70;3.00;;;;;;;14.85;40.53;97153.31;4841139;29;20022;-45
2021/05/04 09:47:23;;;;;;;6.85;2.50;;;;;;;14.96;37.55;97147.75;4841360;29;20435;-48
2021/05/04 09:49:49;;;;;;;5.18;2.45;;;;;;;15.05;37.07;97147.81;4840838;29;20025;-45
2021/05/04 09:52:19;;;;;;;5.15;2.45;;;;;;;15.31;36.53;97140.63;4841281;29;20033;-46
2021/05/04 09:54:45;;;;;;;5.38;2.30;;;;;;;15.31;36.15;97130.06;4841218;29;20033;-47
2021/05/04 09:57:40;;;;;;;5.45;2.40;;;;;;;15.34;35.62;97136.81;4840823;29;20037;-45
2021/05/04 10:00:21;;;;;;;4.45;2.30;;;;;;;15.38;35.02;97131.06;4840502;29;20554;-46
2021/05/04 10:02:49;;;;;;;5.13;2.10;;;;;;;15.37;34.69;97128.59;4839997;29;20105;-48
2021/05/04 10:05:17;;;;;;;5.15;2.00;;;;;;;15.47;35.42;97133.72;4840900;29;20030;-50
2021/05/04 10:07:43;;;;;;;4.80;2.05;;;;;;;15.53;34.16;97127.81;4841194;29;20025;-51
2021/05/04 10:10:10;;;;;;;5.05;2.40;;;;;;;15.46;34.04;97113.59;4840661;29;20073;-50
2021/05/04 10:12:39;;;;;;;3.92;2.00;;;;;;;15.46;34.08;97105.66;4829588;29;20034;-49
2021/05/04 10:15:07;;;;;;;5.45;2.40;;;;;;;15.82;34.75;97101.75;4840498;29;20022;-51
2021/05/04 10:17:33;;;;;;;4.95;1.83;;;;;;;16.12;34.01;97108.19;4840731;29;20574;-48
2021/05/04 10:20:04;;;;;;;4.35;2.20;;;;;;;16.32;33.71;97115.78;4839058;29;20164;-47
2021/05/04 10:22:29;;;;;;;4.60;2.10;;;;;;;16.43;33.46;97109.31;4839346;29;20041;-48
2021/05/04 10:24:55;;;;;;;4.55;2.13;;;;;;;16.23;32.39;97117.59;4840516;29;20026;-45
2021/05/04 10:27:21;;;;;;;6.50;2.45;;;;;;;16.10;32.15;97106.69;4840011;29;20375;-51
2021/05/04 10:29:49;;;;;;;4.53;2.15;;;;;;;16.05;33.14;97111.69;4838843;29;20030;-51
2021/05/04 10:32:15;;;;;;;4.82;2.10;;;;;;;16.18;33.23;97100.59;4839322;29;20054;-49
2021/05/04 10:34:41;;;;;;;5.13;2.03;;;;;;;16.24;33.37;97111.34;4840035;29;20451;-50
2021/05/04 10:37:12;;;;;;;6.18;2.20;;;;;;;16.32;33.41;97103.38;4842655;29;20034;-53
2021/05/04 10:39:41;;;;;;;4.95;2.10;;;;;;;16.35;33.50;97096.94;4843820;29;20025;-51
2021/05/04 10:42:11;;;;;;;4.97;2.20;;;;;;;16.46;33.51;97103.69;4843796;29;20406;-50
2021/05/04 10:44:58;;;;;;;4.88;2.28;;;;;;;17.18;32.63;97085.91;4842610;29;20034;-53
2021/05/04 10:47:46;;;;;;;5.40;2.28;;;;;;;17.19;33.01;97099.97;4843180;29;20034;-51
2021/05/04 10:50:26;;;;;;;3.92;2.05;;;;;;;17.39;33.54;97076.50;4841743;29;20042;-50
2021/05/04 10:52:53;;;;;;;6.43;2.20;;;;;;;17.64;32.61;97083.28;4825325;29;20054;-47
2021/05/04 10:55:19;;;;;;;4.80;1.95;;;;;;;17.53;32.81;97089.81;4840446;29;20045;-48
2021/05/04 10:58:00;;;;;;;4.93;2.00;;;;;;;17.55;30.76;97084.38;4841450;29;20037;-50
2021/05/04 11:00:48;;;;;;;4.63;2.20;;;;;;;17.33;29.24;97086.81;4842630;29;20033;-45
2021/05/04 11:03:32;;;;;;;5.45;1.80;;;;;;;16.94;29.52;97080.72;4843300;29;20029;-50
2021/05/04 11:05:57;;;;;;;4.85;1.98;;;;;;;16.56;28.07;97083.16;4842816;29;20387;-51
2021/05/04 11:08:23;;;;;;;4.63;1.90;;;;;;;16.57;29.35;97079.50;4843207;29;20082;-49
2021/05/04 11:11:16;;;;;;;5.88;1.90;;;;;;;16.57;29.29;97085.63;4842946;29;20038;-48
2021/05/04 11:13:54;;;;;;;7.50;1.88;;;;;;;16.53;29.48;97088.78;4843350;29;20484;-46
2021/05/04 11:16:42;;;;;;;5.78;1.90;;;;;;;16.53;28.67;97072.91;4842758;29;20113;-44
2021/05/04 11:19:17;;;;;;;5.22;1.80;;;;;;;16.71;29.61;97084.09;4843125;29;20112;-48
2021/05/04 11:21:43;;;;;;;4.00;1.60;;;;;;;16.54;28.37;97075.38;4842810;29;20026;-51
2021/05/04 11:24:13;;;;;;;3.10;1.50;;;;;;;16.66;29.58;97085.63;4842764;29;20081;-50
2021/05/04 11:27:05;;;;;;;5.80;1.67;;;;;;;16.59;27.64;97093.41;4842654;29;20036;-50
2021/05/04 11:29:30;;;;;;;4.10;1.63;;;;;;;16.49;28.00;97083.00;4841599;29;20030;-49
2021/05/04 11:32:20;;;;;;;6.00;2.17;;;;;;;16.50;28.33;97082.00;4842576;29;20124;-47
2021/05/04 11:34:51;;;;;;;6.03;1.70;;;;;;;16.15;28.18;97077.94;4842654;29;20530;-49
2021/05/04 11:37:20;;;;;;;7.13;2.17;;;;;;;16.15;28.46;97093.81;4842569;29;20058;-46
2021/05/04 11:39:55;;;;;;;5.15;1.70;;;;;;;16.09;29.19;97091.84;4842544;29;20032;-50
2021/05/04 11:42:42;;;;;;;4.35;1.70;;;;;;;16.20;28.90;97080.91;4842722;29;20034;-46
2021/05/04 11:45:12;;;;;;;5.88;1.80;;;;;;;16.31;28.76;97087.66;4842553;29;20037;-51
2021/05/04 11:47:42;;;;;;;4.88;1.80;;;;;;;16.50;28.27;97084.66;4841696;29;20052;-50
2021/05/04 11:50:14;;;;;;;5.13;1.95;;;;;;;16.51;28.01;97069.59;4841051;29;20026;-50
2021/05/04 11:52:41;;;;;;;5.28;1.80;;;;;;;16.93;27.35;97068.47;4842806;29;20033;-48
2021/05/04 11:55:13;;;;;;;4.38;1.83;;;;;;;17.48;26.70;97075.44;4842325;29;20038;-47
2021/05/04 11:57:39;;;;;;;4.07;1.73;;;;;;;17.50;26.91;97071.63;4842500;29;20679;-50
2021/05/04 12:00:06;;;;;;;4.63;1.63;;;;;;;17.84;26.65;97066.94;4841692;29;20131;-51
2021/05/04 12:02:32;;;;;;;4.30;1.80;;;;;;;18.05;26.63;97055.66;4842982;29;20036;-50
2021/05/04 12:04:58;;;;;;;5.43;1.88;;;;;;;17.84;27.39;97066.94;4842720;29;20041;-47
2021/05/04 12:07:39;;;;;;;4.47;2.00;;;;;;;17.42;27.23;97079.63;4842728;29;20447;-50
2021/05/04 12:10:19;;;;;;;4.05;1.92;;;;;;;17.07;28.14;97086.31;4842234;29;20018;-48
2021/05/04 12:12:44;;;;;;;6.22;1.80;;;;;;;17.24;26.62;97066.66;4843047;29;20443;-47
2021/05/04 12:15:12;;;;;;;4.03;1.90;;;;;;;17.19;27.23;97079.59;4842471;29;20478;-49
2021/05/04 12:17:37;;;;;;;5.85;1.90;;;;;;;16.79;28.15;97094.69;4842451;29;20437;-54
2021/05/04 12:20:15;;;;;;;6.50;1.80;;;;;;;16.40;27.96;97072.59;4842350;29;20022;-49
2021/05/04 12:22:47;;;;;;;4.78;2.05;;;;;;;16.46;28.56;97071.94;4842172;29;20108;-47
2021/05/04 12:25:36;;;;;;;5.55;1.92;;;;;;;16.63;28.68;97089.41;4842498;29;20086;-48
2021/05/04 12:28:02;;;;;;;4.78;1.90;;;;;;;16.30;28.62;97067.50;4842507;29;20109;-47
2021/05/04 12:30:27;;;;;;;3.85;1.70;;;;;;;16.21;29.17;97066.69;4841868;29;20431;-45
2021/05/04 12:32:53;;;;;;;2.58;1.55;;;;;;;16.41;29.43;97074.25;4841228;29;20295;-45
2021/05/04 12:35:30;;;;;;;3.15;1.70;;;;;;;16.35;29.48;97071.28;4825786;29;20521;-43
2021/05/04 12:38:05;;;;;;;4.68;1.90;;;;;;;16.21;29.80;97058.75;4842420;29;20033;-45
2021/05/04 12:40:31;;;;;;;5.53;1.85;;;;;;;16.19;29.06;97071.31;4841830;29;20026;-44
2021/05/04 12:43:30;;;;;;;4.68;1.95;;;;;;;16.08;29.89;97064.56;4842241;29;20031;-47
2021/05/04 12:46:04;;;;;;;5.40;2.00;;;;;;;15.75;32.76;97071.69;4831268;29;20041;-50
2021/05/04 12:48:29;;;;;;;5.85;2.22;;;;;;;15.48;33.75;97083.34;4841861;29;20040;-48
2021/05/04 12:51:05;;;;;;;5.65;1.95;;;;;;;15.33;34.79;97067.31;4841679;29;20029;-45
2021/05/04 12:53:39;;;;;;;5.97;2.30;;;;;;;15.23;35.67;97086.94;4841899;29;20494;-46
2021/05/04 12:56:10;;;;;;;5.53;2.05;;;;;;;15.20;35.74;97088.09;4828163;29;20030;-52
2021/05/04 12:58:53;;;;;;;6.28;2.28;;;;;;;14.98;36.70;97081.59;4823379;29;20030;-49
2021/05/04 13:01:19;;;;;;;5.10;2.10;;;;;;;14.96;36.99;97078.28;4837775;29;20082;-48
2021/05/04 13:03:50;;;;;;;5.68;2.25;;;;;;;15.11;36.14;97075.88;4842397;29;20108;-49
2021/05/04 13:06:20;;;;;;;7.97;2.30;;;;;;;14.74;36.83;97084.97;4826205;29;20021;-47
2021/05/04 13:08:50;;;;;;;6.30;2.50;;;;;;;14.66;37.06;97095.50;4841171;29;20034;-49
2021/05/04 13:11:18;;;;;;;4.97;2.28;;;;;;;14.49;37.65;97099.81;4845267;29;20045;-51
2021/05/04 13:14:14;;;;;;;4.55;2.15;;;;;;;14.40;37.51;97104.22;4827208;29;20033;-46
2021/05/04 13:32:51;;;;;;;8.95;1.80;;;;;;;13.21;38.93;97131.81;4841935;29;20041;-44
2021/05/04 13:35:21;;;;;;;4.28;1.70;;;;;;;13.16;39.08;97120.91;4842269;29;20436;-47
2021/05/04 13:38:10;;;;;;;5.90;2.10;;;;;;;13.27;38.86;97116.28;4841692;29;20054;-45
2021/05/04 13:48:35;;;;;;;5.22;1.67;;;;;;;13.81;38.44;97128.66;4841605;29;20525;-48
2021/05/04 13:51:01;;;;;;;5.88;1.90;;;;;;;13.67;39.26;97132.66;4839903;29;20038;-46
2021/05/04 13:53:26;;;;;;;5.97;2.00;;;;;;;13.69;40.01;97146.50;4840036;29;20048;-49
2021/05/04 13:55:52;;;;;;;4.72;1.98;;;;;;;13.27;40.25;97144.44;4842234;29;20038;-47
2021/05/04 13:58:18;;;;;;;6.25;2.03;;;;;;;13.37;40.26;97147.84;4843737;29;20038;-46
2021/05/04 14:27:03;;;;;;;4.72;2.35;;;;;;;12.96;48.11;97171.00;4846330;29;20045;-49
2021/05/04 14:29:28;;;;;;;5.15;2.10;;;;;;;12.86;47.52;97164.13;4846810;29;20025;-53
2021/05/04 14:31:56;;;;;;;5.78;2.60;;;;;;;12.87;49.06;97153.47;4846736;29;20037;-47
2021/05/04 14:34:21;;;;;;;6.50;2.47;;;;;;;12.92;48.67;97145.16;4846754;29;20030;-49
2021/05/04 14:39:34;;;;;;;5.50;2.10;;;;;;;12.82;49.50;97138.09;4846605;29;20026;-48
2021/05/04 14:55:51;;;;;;;5.60;1.85;;;;;;;12.92;48.65;97138.06;4846695;29;20082;-47
2021/05/04 15:00:59;;;;;;;5.00;1.80;;;;;;;12.75;49.15;97146.72;4846289;29;20411;-48
2021/05/04 15:03:25;;;;;;;4.28;2.08;;;;;;;12.89;50.32;97137.53;4846282;29;20108;-52
2021/05/04 15:05:50;;;;;;;5.50;2.10;;;;;;;12.96;48.25;97139.44;4846745;29;20037;-45
2021/05/04 15:08:15;;;;;;;5.05;1.80;;;;;;;13.20;47.96;97136.25;4845726;29;20514;-47
2021/05/04 15:10:43;;;;;;;5.10;1.95;;;;;;;12.97;48.31;97129.72;4845589;29;20033;-51
2021/05/04 15:13:09;;;;;;;6.75;2.25;;;;;;;13.24;47.21;97127.13;4846395;29;20033;-46
2021/05/04 15:15:51;;;;;;;3.95;2.05;;;;;;;13.39;47.04;97118.72;4846480;29;20030;-48
2021/05/04 15:21:02;;;;;;;4.03;1.90;;;;;;;13.66;48.20;97117.81;4846302;29;20065;-51
2021/05/04 15:23:27;;;;;;;4.72;2.20;;;;;;;13.61;47.08;97118.28;4846950;29;20026;-50
2021/05/04 15:25:55;;;;;;;3.80;1.90;;;;;;;13.44;47.25;97112.03;4847269;29;20371;-46
2021/05/04 15:28:21;;;;;;;3.75;1.90;;;;;;;13.34;47.14;97108.63;4846857;29;20030;-48
2021/05/04 15:30:46;;;;;;;5.55;1.92;;;;;;;13.26;47.84;97103.28;4846661;29;20033;-50
2021/05/04 15:33:12;;;;;;;5.78;2.10;;;;;;;13.25;48.12;97109.53;4846957;29;20414;-49
2021/05/04 15:35:38;;;;;;;3.72;1.80;;;;;;;12.99;47.52;97110.19;4860668;29;20033;-50
2021/05/04 15:38:05;;;;;;;4.32;1.90;;;;;;;12.74;47.89;97108.25;4859943;29;20082;-49
2021/05/04 15:40:30;;;;;;;5.35;1.90;;;;;;;12.71;48.51;97103.28;4845454;29;20056;-47
2021/05/04 15:42:56;;;;;;;5.38;1.98;;;;;;;12.66;48.75;97108.13;4846300;29;20037;-49
2021/05/04 15:45:22;;;;;;;5.55;2.38;;;;;;;12.67;49.26;97112.44;4845633;29;20026;-45
2021/05/04 16:01:30;;;;;;;4.03;1.90;;;;;;;12.46;50.83;97110.84;4845004;29;20063;-48
2021/05/04 16:06:36;;;;;;;4.45;1.80;;;;;;;12.40;50.78;97098.28;4845465;29;20062;-50
2021/05/04 16:09:14;;;;;;;4.30;1.80;;;;;;;12.35;50.89;97103.09;4845251;29;20026;-47
2021/05/04 16:11:39;;;;;;;4.75;1.70;;;;;;;12.25;50.38;97103.16;4845274;29;20171;-48
2021/05/04 16:14:05;;;;;;;5.03;1.83;;;;;;;12.35;51.02;97109.22;4845043;29;20034;-52
2021/05/04 16:16:31;;;;;;;3.95;1.75;;;;;;;12.32;50.90;97100.78;4845043;29;20387;-53
2021/05/04 16:21:33;;;;;;;3.90;1.73;;;;;;;12.44;50.51;97099.63;4845294;29;20037;-47
2021/05/04 16:24:09;;;;;;;4.78;1.80;;;;;;;12.38;51.14;97107.25;4845524;29;20090;-48
2021/05/04 16:26:55;;;;;;;2.85;1.42;;;;;;;12.28;52.34;97104.66;4845446;29;20041;-53
2021/05/04 16:31:46;;;;;;;3.63;1.67;;;;;;;12.10;52.62;97094.88;4844496;29;20030;-51
2021/05/04 16:34:12;;;;;;;4.07;1.80;;;;;;;11.93;54.42;97087.72;4844621;29;20045;-49
2021/05/04 16:36:37;;;;;;;6.78;2.47;;;;;;;11.83;55.89;97087.69;4844849;29;20038;-52
2021/05/04 16:39:06;;;;;;;3.90;1.90;;;;;;;11.67;56.41;97089.25;4844991;29;20022;-52
2021/05/04 16:41:32;;;;;;;3.35;1.63;;;;;;;11.63;56.43;97081.66;4845163;29;20482;-48
2021/05/04 16:43:57;;;;;;;4.20;1.90;;;;;;;11.64;57.79;97088.56;4844321;29;20041;-49
2021/05/04 16:46:23;;;;;;;4.28;1.90;;;;;;;11.58;58.58;97083.84;4843963;29;20063;-48
2021/05/04 16:48:50;;;;;;;4.20;1.90;;;;;;;11.60;57.32;97079.28;4843552;29;20034;-49
2021/05/04 16:51:16;;;;;;;5.80;2.00;;;;;;;11.59;58.47;97077.63;4843042;29;20106;-50
2021/05/04 16:53:41;;;;;;;4.65;1.88;;;;;;;11.59;57.72;97077.63;4841747;29;20383;-51
2021/05/04 16:56:07;;;;;;;5.47;2.00;;;;;;;11.59;57.74;97075.00;4843137;29;20025;-47
2021/05/04 16:58:32;;;;;;;3.70;1.85;;;;;;;11.39;58.25;97073.34;4842828;29;20044;-52
2021/05/04 17:01:05;;;;;;;4.07;1.75;;;;;;;11.43;58.91;97064.25;4843348;29;20041;-48
2021/05/04 17:03:34;;;;;;;3.63;1.77;;;;;;;11.50;58.41;97065.34;4843355;29;20048;-48
2021/05/04 17:06:28;;;;;;;3.97;1.90;;;;;;;11.46;59.08;97069.22;4843017;29;20029;-49
2021/05/04 17:11:19;;;;;;;7.15;2.17;;;;;;;11.29;60.87;97067.28;4842900;29;20045;-50
2021/05/04 17:13:44;;;;;;;4.85;1.92;;;;;;;11.33;60.77;97068.66;4842798;29;20034;-47
2021/05/04 17:16:10;;;;;;;5.22;2.13;;;;;;;11.21;61.63;97061.88;4842800;29;20397;-48
2021/05/04 17:18:35;;;;;;;4.53;2.10;;;;;;;11.16;62.18;97062.28;4842560;29;20451;-48
2021/05/04 17:21:01;;;;;;;5.32;2.40;;;;;;;10.82;63.29;97061.81;4842100;29;20038;-49
2021/05/04 17:23:26;;;;;;;4.82;2.10;;;;;;;10.89;63.52;97071.63;4842780;29;20029;-47
2021/05/04 17:25:52;;;;;;;6.65;2.50;;;;;;;10.90;64.63;97072.44;4850953;29;20029;-54
2021/05/04 17:28:17;;;;;;;5.90;2.20;;;;;;;10.84;64.30;97086.09;4841424;29;20451;-50
2021/05/04 17:30:43;;;;;;;6.55;2.08;;;;;;;10.68;64.60;97074.31;4840935;29;20033;-52
2021/05/04 17:33:08;;;;;;;5.85;2.72;;;;;;;10.60;65.04;97082.03;4842225;29;20041;-50
2021/05/04 17:35:33;;;;;;;5.40;2.53;;;;;;;10.58;65.10;97078.72;4842094;29;20034;-49
2021/05/04 17:38:06;;;;;;;5.43;2.38;;;;;;;10.44;65.73;97076.44;4842742;29;20033;-50
2021/05/04 17:40:32;;;;;;;5.72;2.60;;;;;;;10.33;66.76;97084.41;4839497;29;20030;-48
2021/05/04 17:42:57;;;;;;;5.35;2.50;;;;;;;10.28;67.48;97086.56;4842975;29;20113;-48
2021/05/04 17:45:26;;;;;;;6.45;2.47;;;;;;;10.22;67.51;97066.94;4844316;29;20695;-51
2021/05/04 17:47:52;;;;;;;5.97;2.70;;;;;;;10.37;67.80;97076.13;4845490;29;20030;-49
2021/05/04 17:50:17;;;;;;;6.85;2.58;;;;;;;10.40;67.62;97056.72;4845246;29;20033;-54
2021/05/04 17:52:43;;;;;;;4.95;2.42;;;;;;;10.54;67.56;97056.34;4846658;29;20034;-49
2021/05/04 17:55:09;;;;;;;5.20;2.50;;;;;;;10.47;67.90;97055.22;4847054;29;20029;-47
2021/05/04 17:57:34;;;;;;;6.50;2.35;;;;;;;10.50;66.46;97049.72;4846945;29;20061;-53
2021/05/04 17:59:59;;;;;;;6.00;2.42;;;;;;;10.50;65.90;97059.38;4846106;29;20035;-51
2021/05/04 18:02:25;;;;;;;5.35;2.67;;;;;;;10.40;66.18;97060.16;4846806;29;20030;-49
2021/05/04 18:04:50;;;;;;;6.75;2.35;;;;;;;10.36;66.73;97057.94;4846471;29;20040;-51
2021/05/04 18:07:20;;;;;;;5.20;2.42;;;;;;;10.36;66.88;97048.28;4846079;29;20030;-49
2021/05/04 18:09:45;;;;;;;5.63;2.60;;;;;;;10.33;67.45;97048.53;4846916;29;20057;-48
2021/05/04 18:12:25;;;;;;;5.63;2.90;;;;;;;10.38;66.77;97038.47;4843384;29;20030;-53
2021/05/04 18:15:07;;;;;;;6.38;2.80;;;;;;;10.26;67.70;97025.63;4843581;29;20502;-50
2021/05/04 18:23:00;;;;;;;6.75;2.75;;;;;;;10.19;68.16;97028.72;4843811;29;20473;-50
2021/05/04 18:25:26;;;;;;;4.97;2.60;;;;;;;10.17;68.72;97020.16;4842684;29;20026;-50
2021/05/04 18:27:51;;;;;;;6.60;2.75;;;;;;;10.19;68.70;97020.88;4842181;29;20065;-50
2021/05/04 18:30:17;;;;;;;7.85;2.70;;;;;;;10.11;68.97;97018.06;4842360;29;20034;-51
2021/05/04 18:32:43;;;;;;;4.85;2.40;;;;;;;10.08;68.51;97007.88;4842799;29;20054;-50
2021/05/04 18:35:18;;;;;;;5.97;2.40;;;;;;;10.19;67.44;97014.81;4843711;29;20551;-48
2021/05/04 18:37:58;;;;;;;5.95;3.03;;;;;;;10.17;67.41;97012.28;4843561;29;20036;-49
2021/05/04 19:23:45;;;;;;;8.68;4.20;;;;;;;9.97;67.51;96986.97;4832736;29;20085;-49
2021/05/04 20:08:57;;;;;;;1.83;0.90;;;;;;;9.16;72.32;97060.00;4845438;29;20049;-46
2021/05/04 20:13:47;;;;;;;1.30;0.90;;;;;;;9.10;71.89;97063.13;4845029;29;20033;-50
2021/05/04 20:16:13;;;;;;;1.77;0.90;;;;;;;9.01;72.13;97063.84;4845137;29;20026;-45
2021/05/04 20:18:40;;;;;;;1.58;0.90;;;;;;;9.08;71.96;97062.41;4844946;29;20042;-45
2021/05/04 20:21:07;;;;;;;2.00;0.90;;;;;;;9.06;71.31;97060.88;4844704;29;20173;-45
2021/05/04 20:23:32;;;;;;;1.85;0.70;;;;;;;9.06;71.66;97055.66;4844735;29;20030;-47
2021/05/04 20:25:58;;;;;;;2.53;0.85;;;;;;;8.91;71.64;97057.69;4844903;29;20032;-45
2021/05/04 20:28:23;;;;;;;1.38;0.70;;;;;;;8.98;70.99;97053.63;4844388;29;20045;-45
2021/05/04 20:30:49;;;;;;;1.45;0.70;;;;;;;9.03;71.49;97077.66;4843826;29;20045;-47
2021/05/04 20:33:18;;;;;;;1.40;0.68;;;;;;;9.06;70.63;97066.13;4844608;29;20062;-43
2021/05/04 20:35:43;;;;;;;1.73;0.70;;;;;;;8.91;70.50;97069.00;4844807;29;20026;-45
2021/05/04 20:38:08;;;;;;;1.50;0.85;;;;;;;8.91;70.88;97078.63;4844248;29;20030;-47
2021/05/04 20:40:34;;;;;;;4.80;1.20;;;;;;;8.91;70.90;97087.31;4843892;29;20022;-44
2021/05/04 20:43:00;;;;;;;12.25;3.17;;;;;;;8.80;71.15;97082.91;4845707;29;20030;-44
2021/05/04 20:45:26;;;;;;;0.82;0.60;;;;;;;8.80;71.42;97082.09;4843707;29;20498;-45
2021/05/04 20:47:54;;;;;;;5.22;1.60;;;;;;;8.79;70.80;97086.47;4844285;29;20033;-44
2021/05/04 20:50:20;;;;;;;4.63;1.80;;;;;;;8.79;70.56;97064.75;4844192;29;20058;-47
2021/05/04 20:52:46;;;;;;;15.50;5.85;;;;;;;8.79;70.55;97085.66;4845691;29;20101;-48